createdAt,value
2019-06-26T00:00:29.549Z,17.90
2019-06-26T00:02:58.435Z,10.60
2019-06-26T00:05:27.852Z,12.07
2019-06-26T00:07:57.334Z,9.60
2019-06-26T00:10:26.710Z,9.53
2019-06-26T00:12:55.855Z,7.95
2019-06-26T00:15:25.163Z,10.75
2019-06-26T00:17:54.039Z,9.68
2019-06-26T00:20:26.017Z,9.40
2019-06-26T00:22:54.894Z,7.75
2019-06-26T00:25:24.915Z,15.25
2019-06-26T00:27:53.802Z,10.45
2019-06-26T00:30:22.695Z,12.20
2019-06-26T00:32:51.588Z,7.40
2019-06-26T00:35:20.478Z,11.63
2019-06-26T00:37:49.365Z,9.90
2019-06-26T00:40:18.358Z,11.40
2019-06-26T00:42:47.151Z,9.20
2019-06-26T00:45:16.619Z,11.43
2019-06-26T00:47:45.443Z,9.65
2019-06-26T00:50:14.746Z,10.63
2019-06-26T00:52:43.634Z,7.95
2019-06-26T00:55:13.552Z,10.35
2019-06-26T00:57:42.544Z,8.78
2019-06-26T01:00:13.995Z,11.03
2019-06-26T01:02:42.784Z,14.63
2019-06-26T01:05:13.842Z,12.16
2019-06-26T01:07:43.026Z,9.98
2019-06-26T01:10:13.769Z,12.58
2019-06-26T01:12:42.651Z,18.67
2019-06-26T01:15:12.669Z,10.50
2019-06-26T01:17:41.562Z,11.45
2019-06-26T01:20:14.243Z,11.42
2019-06-26T01:22:43.131Z,14.63
2019-06-26T01:25:13.645Z,8.85
2019-06-26T01:27:42.551Z,12.05
2019-06-26T01:30:12.245Z,13.05
2019-06-26T01:32:41.056Z,14.53
2019-06-26T01:35:10.576Z,12.65
2019-06-26T01:37:39.455Z,11.38
2019-06-26T01:40:09.056Z,21.50
2019-06-26T01:42:37.948Z,12.63
2019-06-26T01:45:08.081Z,8.70
2019-06-26T01:47:37.081Z,7.97
2019-06-26T01:50:07.362Z,15.47
2019-06-26T01:52:36.278Z,9.75
2019-06-26T01:55:08.989Z,14.45
2019-06-26T01:57:37.849Z,10.55
2019-06-26T02:00:10.685Z,9.50
2019-06-26T02:02:39.533Z,12.85
2019-06-26T02:05:09.007Z,12.50
2019-06-26T02:07:37.826Z,11.18
2019-06-26T02:10:08.018Z,8.38
2019-06-26T02:12:37.045Z,7.83
2019-06-26T02:15:07.803Z,15.05
2019-06-26T02:17:36.748Z,10.95
2019-06-26T02:20:09.526Z,13.35
2019-06-26T02:22:38.334Z,12.35
2019-06-26T02:25:07.522Z,11.05
2019-06-26T02:27:36.631Z,14.15
2019-06-26T02:30:07.533Z,10.28
2019-06-26T02:32:36.566Z,15.10
2019-06-26T02:35:09.821Z,10.43
2019-06-26T02:37:37.794Z,9.68
2019-06-26T02:40:07.616Z,11.38
2019-06-26T02:42:36.428Z,6.70
2019-06-26T02:45:06.797Z,10.80
2019-06-26T02:47:35.957Z,16.30
2019-06-26T02:50:07.150Z,14.50
2019-06-26T02:52:36.090Z,9.00
2019-06-26T02:55:07.472Z,10.58
2019-06-26T02:57:36.355Z,14.87
2019-06-26T03:00:07.210Z,16.40
2019-06-26T03:02:36.062Z,15.90
2019-06-26T03:05:06.759Z,11.83
2019-06-26T03:07:37.223Z,12.68
2019-06-26T03:10:08.009Z,11.48
2019-06-26T03:12:36.949Z,11.05
2019-06-26T03:15:09.892Z,16.32
2019-06-26T03:17:54.053Z,15.95
2019-06-26T03:20:10.391Z,10.68
2019-06-26T03:22:39.272Z,10.23
2019-06-26T03:25:09.191Z,11.30
2019-06-26T03:27:38.079Z,14.78
2019-06-26T03:30:09.025Z,12.35
2019-06-26T03:32:37.909Z,10.70
2019-06-26T03:35:07.097Z,10.20
2019-06-26T03:37:36.010Z,12.93
2019-06-26T03:40:06.524Z,11.90
2019-06-26T03:42:35.421Z,13.93
2019-06-26T03:45:06.052Z,15.50
2019-06-26T03:47:34.944Z,9.88
2019-06-26T03:50:05.063Z,8.13
2019-06-26T03:52:33.956Z,11.88
2019-06-26T03:55:02.845Z,10.28
2019-06-26T03:57:35.164Z,17.90
2019-06-26T04:00:02.425Z,11.03
2019-06-26T04:02:31.348Z,13.67
2019-06-26T04:05:00.334Z,13.58
2019-06-26T04:07:29.251Z,12.27
2019-06-26T04:09:58.143Z,11.10
2019-06-26T04:12:27.031Z,14.30
2019-06-26T04:14:55.922Z,8.75
2019-06-26T04:17:24.815Z,10.83
2019-06-26T04:19:53.704Z,12.30
2019-06-26T04:22:22.596Z,12.33
2019-06-26T04:24:51.487Z,19.80
2019-06-26T04:27:22.030Z,15.70
2019-06-26T04:29:50.912Z,13.38
2019-06-26T04:32:19.802Z,13.97
2019-06-26T04:34:48.691Z,10.70
2019-06-26T04:37:17.585Z,12.70
2019-06-26T04:39:46.474Z,9.63
2019-06-26T04:42:15.371Z,15.03
2019-06-26T04:44:44.276Z,10.50
2019-06-26T04:47:13.153Z,13.10
2019-06-26T04:49:43.682Z,9.88
2019-06-26T04:52:12.575Z,11.57
2019-06-26T04:54:41.463Z,13.00
2019-06-26T04:57:10.802Z,11.50
2019-06-26T04:59:39.755Z,10.40
2019-06-26T05:02:09.539Z,17.54
2019-06-26T05:04:38.465Z,11.05
2019-06-26T05:07:07.862Z,11.00
2019-06-26T05:09:36.784Z,15.40
2019-06-26T05:12:05.648Z,9.90
2019-06-26T05:14:34.547Z,8.83
2019-06-26T05:17:03.467Z,15.55
2019-06-26T05:19:32.524Z,13.22
2019-06-26T05:22:01.417Z,13.50
2019-06-26T05:24:30.307Z,10.13
2019-06-26T05:26:59.200Z,10.82
2019-06-26T05:29:28.092Z,9.30
2019-06-26T05:31:56.989Z,14.13
2019-06-26T05:34:25.872Z,10.75
2019-06-26T05:36:54.764Z,12.37
2019-06-26T05:39:23.759Z,11.33
2019-06-26T05:41:54.083Z,8.03
2019-06-26T05:44:22.973Z,11.08
2019-06-26T05:46:51.872Z,12.55
2019-06-26T05:49:20.776Z,12.70
2019-06-26T05:51:49.682Z,11.78
2019-06-26T05:54:18.542Z,13.30
2019-06-26T05:56:47.442Z,15.05
2019-06-26T05:59:16.325Z,17.42
2019-06-26T06:01:45.220Z,15.88
2019-06-26T06:04:14.109Z,14.73
2019-06-26T06:06:42.999Z,12.63
2019-06-26T06:09:11.993Z,16.02
2019-06-26T06:11:40.881Z,13.32
2019-06-26T06:14:10.182Z,13.08
2019-06-26T06:16:47.186Z,16.10
2019-06-26T06:19:09.613Z,15.05
2019-06-26T06:21:38.497Z,12.80
2019-06-26T06:24:07.986Z,10.06
2019-06-26T06:26:36.893Z,8.43
2019-06-26T06:29:05.991Z,12.23
2019-06-26T06:31:34.881Z,13.27
2019-06-26T06:34:03.775Z,15.63
2019-06-26T06:36:32.661Z,17.48
2019-06-26T06:39:05.082Z,16.80
2019-06-26T06:41:43.224Z,14.57
2019-06-26T06:44:11.116Z,17.40
2019-06-26T06:46:43.052Z,18.15
2019-06-26T06:49:12.582Z,16.75
2019-06-26T06:51:41.479Z,17.35
2019-06-26T06:54:12.722Z,14.90
2019-06-26T06:56:41.617Z,17.32
2019-06-26T06:59:10.809Z,12.98
2019-06-26T07:01:39.806Z,10.88
2019-06-26T07:04:11.277Z,16.04
2019-06-26T07:06:40.177Z,15.15
2019-06-26T07:09:10.211Z,12.76
2019-06-26T07:11:40.698Z,20.43
2019-06-26T07:14:10.715Z,13.52
2019-06-26T07:16:44.111Z,11.55
2019-06-26T07:19:14.439Z,30.63
2019-06-26T07:21:43.340Z,16.60
2019-06-26T07:24:12.224Z,10.50
2019-06-26T07:26:41.112Z,14.28
2019-06-26T07:29:10.721Z,13.48
2019-06-26T07:31:49.136Z,17.23
2019-06-26T07:34:18.236Z,15.28
2019-06-26T07:36:49.490Z,15.95
2019-06-26T07:39:18.563Z,17.48
2019-06-26T07:41:50.509Z,14.00
2019-06-26T07:44:20.860Z,15.00
2019-06-26T07:46:55.144Z,13.88
2019-06-26T07:49:24.170Z,16.65
2019-06-26T07:51:55.929Z,20.82
2019-06-26T07:54:24.828Z,18.75
2019-06-26T07:56:55.904Z,19.55
2019-06-26T07:59:29.720Z,18.60
2019-06-26T08:02:06.827Z,18.57
2019-06-26T08:04:35.650Z,20.20
2019-06-26T08:07:11.264Z,14.10
2019-06-26T08:09:42.861Z,26.60
2019-06-26T08:12:12.219Z,25.85
2019-06-26T08:14:46.050Z,17.92
2019-06-26T08:17:20.870Z,20.30
2019-06-26T08:19:55.113Z,20.68
2019-06-26T08:22:29.122Z,20.53
2019-06-26T08:25:00.300Z,16.55
2019-06-26T08:28:00.907Z,16.53
2019-06-26T08:30:34.727Z,16.57
2019-06-26T08:33:16.143Z,23.50
2019-06-26T08:35:48.594Z,16.00
2019-06-26T08:38:20.154Z,19.90
2019-06-26T08:40:53.149Z,21.55
2019-06-26T08:43:23.229Z,28.00
2019-06-26T08:45:55.009Z,17.35
2019-06-26T08:48:38.951Z,12.03
2019-06-26T08:50:56.660Z,15.93
2019-06-26T08:53:25.445Z,18.77
2019-06-26T08:55:54.351Z,25.25
2019-06-26T08:58:23.232Z,18.00
2019-06-26T09:00:52.126Z,16.87
2019-06-26T09:03:21.017Z,21.48
2019-06-26T09:05:49.904Z,18.23
2019-06-26T09:08:19.044Z,16.82
2019-06-26T09:10:48.013Z,17.85
2019-06-26T09:13:16.893Z,20.82
2019-06-26T09:15:49.615Z,18.98
2019-06-26T09:18:16.309Z,16.83
2019-06-26T09:20:46.941Z,22.50
2019-06-26T09:23:15.832Z,22.37
2019-06-26T09:25:44.805Z,20.08
2019-06-26T09:28:13.615Z,23.37
2019-06-26T09:30:42.516Z,17.25
2019-06-26T09:33:12.059Z,15.65
2019-06-26T09:35:43.248Z,23.62
2019-06-26T09:38:12.051Z,25.65
2019-06-26T09:40:40.940Z,15.28
2019-06-26T09:43:10.856Z,19.82
2019-06-26T09:45:39.800Z,21.80
2019-06-26T09:48:09.257Z,23.30
2019-06-26T09:50:38.397Z,20.48
2019-06-26T09:53:07.960Z,20.92
2019-06-26T09:55:38.283Z,18.97
2019-06-26T09:58:07.999Z,28.80
2019-06-26T10:00:39.936Z,19.12
2019-06-26T10:03:09.773Z,18.80
2019-06-26T10:05:38.664Z,17.92
2019-06-26T10:08:07.729Z,20.62
2019-06-26T10:10:36.753Z,17.35
2019-06-26T10:13:05.542Z,21.20
2019-06-26T10:15:34.461Z,15.50
2019-06-26T10:18:03.327Z,25.02
2019-06-26T10:20:32.216Z,25.97
2019-06-26T10:23:01.106Z,20.77
2019-06-26T10:25:30.001Z,18.87
2019-06-26T10:27:58.897Z,25.82
2019-06-26T10:30:27.779Z,17.77
2019-06-26T10:32:56.673Z,23.35
2019-06-26T10:35:25.594Z,19.62
2019-06-26T10:37:54.558Z,17.70
2019-06-26T10:40:23.554Z,26.52
2019-06-26T10:42:52.443Z,19.32
2019-06-26T10:45:21.443Z,20.03
2019-06-26T10:47:50.331Z,24.65
2019-06-26T10:50:19.422Z,28.60
2019-06-26T10:52:48.319Z,14.50
2019-06-26T10:55:18.453Z,21.40
2019-06-26T10:57:47.329Z,16.30
2019-06-26T11:00:17.888Z,26.13
2019-06-26T11:02:46.958Z,25.75
2019-06-26T11:05:16.467Z,19.30
2019-06-26T11:07:45.455Z,20.35
2019-06-26T11:10:15.846Z,20.20
2019-06-26T11:12:47.984Z,13.50
2019-06-26T11:15:15.206Z,18.67
2019-06-26T11:17:44.090Z,13.40
2019-06-26T11:20:13.699Z,19.05
2019-06-26T11:22:44.130Z,20.08
2019-06-26T11:25:13.754Z,13.78
2019-06-26T11:27:42.625Z,15.63
2019-06-26T11:30:13.328Z,28.27
2019-06-26T11:32:42.150Z,28.90
2019-06-26T11:35:11.555Z,17.62
2019-06-26T11:37:40.551Z,13.30
2019-06-26T11:40:10.745Z,16.67
2019-06-26T11:42:39.767Z,12.35
2019-06-26T11:45:10.544Z,15.02
2019-06-26T11:47:39.791Z,19.62
2019-06-26T11:50:09.676Z,17.52
2019-06-26T11:52:38.978Z,21.52
2019-06-26T11:55:10.501Z,14.96
2019-06-26T11:57:39.605Z,19.50
2019-06-26T12:00:13.038Z,19.23
2019-06-26T12:02:41.854Z,12.55
2019-06-26T12:05:14.344Z,25.82
2019-06-26T12:07:43.224Z,20.27
2019-06-26T12:10:13.140Z,20.15
2019-06-26T12:12:42.035Z,16.67
2019-06-26T12:15:13.648Z,20.85
2019-06-26T12:17:42.470Z,16.67
2019-06-26T12:20:19.403Z,16.82
2019-06-26T12:22:45.791Z,16.85
2019-06-26T12:25:14.792Z,18.95
2019-06-26T12:27:43.671Z,19.27
2019-06-26T12:30:13.394Z,18.23
2019-06-26T12:32:57.870Z,22.73
2019-06-26T12:35:15.567Z,18.35
2019-06-26T12:37:44.460Z,15.25
2019-06-26T12:40:14.160Z,15.53
2019-06-26T12:42:42.938Z,18.80
2019-06-26T12:45:12.886Z,15.63
2019-06-26T12:47:41.866Z,16.15
2019-06-26T12:50:14.239Z,19.00
2019-06-26T12:52:43.135Z,20.20
2019-06-26T12:55:13.146Z,16.62
2019-06-26T12:57:42.144Z,18.30
2019-06-26T13:00:12.648Z,17.58
2019-06-26T13:02:41.564Z,24.10
2019-06-26T13:05:11.479Z,15.94
2019-06-26T13:07:40.371Z,20.35
2019-06-26T13:10:11.014Z,20.82
2019-06-26T13:12:39.907Z,20.68
2019-06-26T13:15:09.995Z,16.93
2019-06-26T13:17:38.805Z,14.98
2019-06-26T13:20:10.965Z,17.20
2019-06-26T13:22:39.793Z,17.40
2019-06-26T13:25:09.643Z,22.90
2019-06-26T13:27:38.675Z,16.77
2019-06-26T13:30:08.079Z,29.60
2019-06-26T13:32:37.094Z,12.67
2019-06-26T13:35:07.181Z,20.70
2019-06-26T13:37:37.614Z,14.90
2019-06-26T13:40:08.208Z,19.17
2019-06-26T13:42:37.037Z,21.80
2019-06-26T13:45:07.388Z,28.65
2019-06-26T13:47:36.259Z,18.23
2019-06-26T13:50:08.972Z,16.07
2019-06-26T13:52:37.928Z,29.40
2019-06-26T13:55:07.434Z,25.92
2019-06-26T13:57:36.433Z,13.53
2019-06-26T14:00:10.450Z,20.50
2019-06-26T14:02:39.326Z,18.73
2019-06-26T14:05:09.536Z,18.34
2019-06-26T14:07:39.162Z,21.23
2019-06-26T14:10:09.306Z,18.32
2019-06-26T14:12:38.572Z,20.35
2019-06-26T14:15:08.295Z,17.75
2019-06-26T14:17:37.093Z,22.35
2019-06-26T14:20:06.677Z,18.07
2019-06-26T14:22:35.477Z,20.15
2019-06-26T14:25:05.925Z,17.00
2019-06-26T14:27:34.898Z,21.00
2019-06-26T14:30:05.127Z,22.93
2019-06-26T14:32:34.016Z,22.62
2019-06-26T14:35:03.313Z,18.23
2019-06-26T14:37:32.205Z,13.85
2019-06-26T14:40:01.107Z,18.85
2019-06-26T14:42:30.022Z,22.17
2019-06-26T14:44:58.878Z,16.97
2019-06-26T14:47:27.774Z,19.07
2019-06-26T14:49:56.664Z,19.02
2019-06-26T14:52:25.591Z,16.27
2019-06-26T14:54:54.446Z,23.30
2019-06-26T14:57:25.954Z,19.07
2019-06-26T14:59:53.968Z,16.77
2019-06-26T15:02:22.860Z,26.80
2019-06-26T15:04:51.752Z,19.98
2019-06-26T15:07:20.644Z,18.85
2019-06-26T15:09:50.475Z,25.32
2019-06-26T15:12:19.348Z,20.57
2019-06-26T15:14:48.248Z,16.17
2019-06-26T15:17:18.664Z,16.37
2019-06-26T15:19:48.991Z,19.48
2019-06-26T15:22:19.421Z,17.80
2019-06-26T15:24:48.624Z,23.02
2019-06-26T15:27:17.513Z,23.75
2019-06-26T15:29:46.596Z,19.45
2019-06-26T15:32:15.450Z,22.42
2019-06-26T15:34:44.321Z,22.77
2019-06-26T15:37:13.183Z,20.40
2019-06-26T15:39:42.075Z,23.02
2019-06-26T15:42:12.087Z,22.98
2019-06-26T15:44:40.980Z,21.07
2019-06-26T15:47:10.689Z,25.62
2019-06-26T15:49:39.579Z,22.02
2019-06-26T15:52:14.888Z,23.32
2019-06-26T15:54:39.615Z,15.65
2019-06-26T15:57:08.609Z,16.55
2019-06-26T15:59:37.501Z,21.20
2019-06-26T16:02:07.827Z,20.32
2019-06-26T16:04:36.717Z,29.55
2019-06-26T16:07:05.662Z,24.27
2019-06-26T16:09:36.256Z,18.42
2019-06-26T16:12:05.133Z,22.22
2019-06-26T16:14:34.025Z,24.87
2019-06-26T16:17:10.636Z,26.87
2019-06-26T16:19:39.489Z,16.37
2019-06-26T16:22:08.789Z,30.25
2019-06-26T16:24:37.681Z,24.02
2019-06-26T16:27:06.590Z,18.40
2019-06-26T16:29:35.465Z,19.35
2019-06-26T16:32:04.262Z,28.62
2019-06-26T16:34:33.145Z,19.87
2019-06-26T16:37:02.038Z,28.47
2019-06-26T16:39:30.927Z,24.97
2019-06-26T16:41:59.928Z,16.73
2019-06-26T16:44:28.821Z,20.10
2019-06-26T16:46:59.319Z,21.07
2019-06-26T16:49:28.334Z,24.37
2019-06-26T16:51:57.231Z,25.68
2019-06-26T16:54:26.122Z,26.33
2019-06-26T16:56:55.034Z,24.07
2019-06-26T16:59:23.902Z,18.42
2019-06-26T17:01:52.999Z,16.77
2019-06-26T17:04:21.992Z,20.40
2019-06-26T17:06:50.980Z,23.05
2019-06-26T17:09:19.875Z,17.32
2019-06-26T17:11:48.870Z,20.57
2019-06-26T17:14:17.763Z,23.07
2019-06-26T17:16:46.652Z,18.62
2019-06-26T17:19:15.544Z,23.93
2019-06-26T17:21:44.436Z,19.73
2019-06-26T17:24:14.590Z,24.33
2019-06-26T17:26:44.810Z,22.58
2019-06-26T17:29:13.675Z,19.50
2019-06-26T17:31:42.561Z,23.30
2019-06-26T17:34:11.876Z,16.93
2019-06-26T17:36:40.757Z,25.25
2019-06-26T17:39:10.465Z,22.20
2019-06-26T17:41:43.987Z,22.45
2019-06-26T17:44:12.038Z,13.86
2019-06-26T17:46:40.929Z,20.02
2019-06-26T17:49:10.744Z,22.92
2019-06-26T17:51:39.633Z,22.15
2019-06-26T17:54:09.037Z,16.10
2019-06-26T17:56:37.941Z,18.20
2019-06-26T17:59:07.534Z,22.60
2019-06-26T18:01:36.426Z,17.65
2019-06-26T18:04:06.143Z,26.35
2019-06-26T18:06:35.235Z,24.70
2019-06-26T18:09:06.297Z,29.72
2019-06-26T18:11:35.185Z,21.30
2019-06-26T18:14:04.060Z,22.07
2019-06-26T18:16:32.949Z,19.55
2019-06-26T18:19:02.061Z,17.77
2019-06-26T18:21:31.127Z,21.93
2019-06-26T18:23:59.931Z,18.55
2019-06-26T18:26:28.924Z,16.30
2019-06-26T18:28:57.819Z,15.75
2019-06-26T18:31:26.723Z,15.83
2019-06-26T18:33:55.600Z,16.00
2019-06-26T18:36:24.490Z,20.07
2019-06-26T18:38:53.384Z,24.57
2019-06-26T18:41:22.277Z,15.23
2019-06-26T18:43:51.189Z,19.27
2019-06-26T18:46:20.058Z,16.37
2019-06-26T18:48:48.949Z,22.77
2019-06-26T18:51:17.837Z,21.73
2019-06-26T18:53:53.536Z,18.62
2019-06-26T18:56:17.445Z,20.27
2019-06-26T18:58:46.354Z,16.30
2019-06-26T19:01:15.247Z,19.37
2019-06-26T19:03:44.242Z,21.93
2019-06-26T19:06:13.132Z,18.10
2019-06-26T19:08:42.433Z,17.40
2019-06-26T19:11:12.348Z,22.68
2019-06-26T19:13:41.240Z,27.32
2019-06-26T19:16:10.746Z,23.28
2019-06-26T19:18:39.640Z,21.48
2019-06-26T19:21:09.553Z,19.76
2019-06-26T19:23:38.444Z,19.48
2019-06-26T19:26:07.849Z,22.50
2019-06-26T19:28:36.746Z,25.45
2019-06-26T19:31:05.632Z,28.20
2019-06-26T19:33:34.530Z,23.15
2019-06-26T19:36:03.412Z,18.98
2019-06-26T19:38:32.456Z,23.75
2019-06-26T19:41:01.330Z,19.48
2019-06-26T19:43:30.295Z,19.07
2019-06-26T19:45:59.084Z,22.07
2019-06-26T19:48:27.973Z,23.07
2019-06-26T19:50:56.863Z,28.10
2019-06-26T19:53:26.884Z,31.33
2019-06-26T19:55:55.774Z,19.65
2019-06-26T19:58:24.665Z,18.53
2019-06-26T20:00:53.561Z,15.65
2019-06-26T20:03:22.551Z,22.62
2019-06-26T20:05:51.441Z,19.12
2019-06-26T20:08:21.767Z,23.40
2019-06-26T20:10:50.657Z,23.42
2019-06-26T20:13:19.548Z,23.75
2019-06-26T20:15:48.443Z,23.18
2019-06-26T20:18:17.333Z,22.75
2019-06-26T20:20:46.222Z,20.77
2019-06-26T20:23:15.121Z,20.85
2019-06-26T20:25:44.109Z,24.82
2019-06-26T20:28:12.997Z,21.30
2019-06-26T20:30:41.892Z,20.85
2019-06-26T20:33:11.294Z,21.95
2019-06-26T20:35:41.697Z,24.67
2019-06-26T20:38:10.817Z,24.37
2019-06-26T20:40:39.707Z,27.10
2019-06-26T20:43:09.527Z,22.12
2019-06-26T20:45:38.413Z,24.00
2019-06-26T20:48:07.716Z,23.58
2019-06-26T20:50:36.608Z,22.42
2019-06-26T20:53:05.398Z,14.50
2019-06-26T20:55:34.495Z,21.73
2019-06-26T20:58:03.381Z,21.33
2019-06-26T21:00:32.273Z,21.93
2019-06-26T21:03:01.165Z,20.88
2019-06-26T21:05:30.057Z,25.40
2019-06-26T21:07:58.947Z,26.65
2019-06-26T21:10:27.840Z,18.93
2019-06-26T21:12:57.755Z,19.62
2019-06-26T21:15:26.646Z,21.87
2019-06-26T21:17:55.537Z,20.43
2019-06-26T21:20:24.429Z,23.15
2019-06-26T21:22:53.319Z,18.27
2019-06-26T21:25:22.519Z,20.63
2019-06-26T21:27:51.412Z,18.85
2019-06-26T21:30:20.403Z,24.77
2019-06-26T21:32:49.302Z,23.42
2019-06-26T21:35:18.393Z,20.23
2019-06-26T21:37:47.181Z,23.50
2019-06-26T21:40:16.175Z,20.95
2019-06-26T21:42:45.106Z,25.13
2019-06-26T21:45:14.467Z,19.48
2019-06-26T21:47:43.360Z,24.45
2019-06-26T21:50:12.764Z,22.90
2019-06-26T21:52:41.660Z,16.97
2019-06-26T21:55:12.597Z,19.92
2019-06-26T21:57:41.493Z,20.27
2019-06-26T22:00:12.278Z,22.80
2019-06-26T22:02:41.267Z,22.32
2019-06-26T22:05:10.937Z,25.27
2019-06-26T22:07:39.816Z,19.57
2019-06-26T22:10:09.943Z,22.77
2019-06-26T22:12:38.832Z,23.45
2019-06-26T22:15:08.121Z,29.92
2019-06-26T22:17:37.021Z,27.75
2019-06-26T22:20:11.230Z,23.95
2019-06-26T22:22:38.080Z,17.73
2019-06-26T22:25:08.868Z,18.45
2019-06-26T22:27:37.808Z,21.43
2019-06-26T22:30:10.069Z,28.32
2019-06-26T22:32:38.969Z,20.57
2019-06-26T22:35:08.271Z,19.17
2019-06-26T22:37:37.162Z,18.57
2019-06-26T22:40:06.750Z,17.10
2019-06-26T22:42:35.557Z,17.30
2019-06-26T22:45:05.442Z,23.73
2019-06-26T22:47:34.471Z,22.52
2019-06-26T22:50:03.992Z,27.25
2019-06-26T22:52:32.968Z,28.55
2019-06-26T22:55:01.861Z,24.30
2019-06-26T22:57:30.752Z,19.50
2019-06-26T22:59:59.662Z,14.43
2019-06-26T23:02:28.536Z,30.03
2019-06-26T23:04:57.437Z,20.67
2019-06-26T23:07:26.419Z,22.00
2019-06-26T23:09:55.313Z,26.95
2019-06-26T23:12:24.201Z,25.10
2019-06-26T23:14:53.198Z,21.75
2019-06-26T23:17:22.092Z,19.05
2019-06-26T23:19:50.982Z,21.82
2019-06-26T23:22:19.869Z,22.70
2019-06-26T23:24:48.761Z,19.37
2019-06-26T23:27:17.658Z,23.42
2019-06-26T23:29:46.447Z,15.10
2019-06-26T23:32:15.333Z,18.83
2019-06-26T23:34:44.225Z,18.05
2019-06-26T23:37:13.115Z,18.10
2019-06-26T23:39:42.011Z,22.75
2019-06-26T23:42:11.211Z,22.02
2019-06-26T23:44:40.122Z,24.77
2019-06-26T23:47:09.502Z,20.92
2019-06-26T23:49:39.829Z,24.98
2019-06-26T23:52:08.922Z,23.85
2019-06-26T23:54:37.816Z,16.00
2019-06-26T23:57:06.711Z,21.42
2019-06-26T23:59:35.596Z,19.10
